In Rescue
 
Open Full Screen Window  High Contrast Mode
March 20, 2019 8:33 PM CDT
Weather Information
Wind Direction
  ---
Wind Speed
  00 kt (0 mph)
Wind Gust
  00 kt (0 mph)
Altimeter
30.10 in
Visibility
10 SM
Temperature
00° C
32° F
Dewpoint
-03° C
27° F
Humidity
80%
1hr Rain Fall
00.00 in.
24hr Rain Fall
00.00 in.
Sky Condition
Clear
VFR

METAR KBJI 210133Z AUTO 00000KT 10SM CLR 00/M03 A3010 RMK AO2 T00021030

FAA Disclaimer: The data displayed is for advisory purposes only and is not to be used for flight planning or operations.